Terminal Aerodrome Forecast
Issued by NWS Shreveport, LA

Current Version | Previous Version | Text Only | Print | Product List | Glossary On
Versions: 1 2 3 4 5 6 7 8 9 10 11 12 13 14 15 16 17 18 19 20 21 22
000
FTUS44 KSHV 041300 AAA
TAFTXK
TAF AMD
KTXK 041346Z 0414/0512 VRB03KT 3/4SM BR VV003
      TEMPO 0414/0415 1SM SHRA BR OVC003
     FM041500 21007KT 5SM -SHRA BR VCTS BKN010CB
     FM041700 03012G20KT P6SM -RA OVC005
     FM050900 03012KT P6SM -FZRA OVC007=

USA.gov is the U.S. government's official web portal to all federal, state and local government web resources and services.